Terminal Aerodrome Forecast
Issued by NWS Newport/Morehead City, NC

Home | Current Version | Previous Version | Text Only | Print | Product List | Glossary On
Versions: 1 2 3 4 5 6 7 8 9 10 11 12 13 14 15
000
FTUS42 KMHX 201700 CCA
TAFEWN
TAF COR
KEWN 201758Z 2018/2118 03010G17KT P6SM VCSH SCT025 BKN040 OVC100
      TEMPO 2018/2022 BKN025
     FM202200 04006KT P6SM VCSH BKN025 OVC040
     FM210600 03005KT 5SM BR VCSH BKN015
     FM211500 36007KT P6SM BKN080=

USA.gov is the U.S. government's official web portal to all federal, state and local government web resources and services.